sensor_id;sensor_type;location;lat;lon;timestamp;P1;durP1;ratioP1;P2;durP2;ratioP2
11004;SDS011;5555;59.622;16.556;2023-04-24T00:02:12;2.83;;;2.40;;
11004;SDS011;5555;59.622;16.556;2023-04-24T00:04:38;5.63;;;2.27;;
11004;SDS011;5555;59.622;16.556;2023-04-24T00:07:09;2.40;;;1.80;;
11004;SDS011;5555;59.622;16.556;2023-04-24T00:09:38;3.37;;;2.20;;
11004;SDS011;5555;59.622;16.556;2023-04-24T00:12:03;4.23;;;1.90;;
11004;SDS011;5555;59.622;16.556;2023-04-24T00:14:30;2.13;;;1.63;;
11004;SDS011;5555;59.622;16.556;2023-04-24T00:16:56;2.60;;;1.37;;
11004;SDS011;5555;59.622;16.556;2023-04-24T00:19:21;2.43;;;1.50;;
11004;SDS011;5555;59.622;16.556;2023-04-24T00:21:47;2.70;;;1.60;;
11004;SDS011;5555;59.622;16.556;2023-04-24T00:24:15;2.47;;;1.80;;
11004;SDS011;5555;59.622;16.556;2023-04-24T00:26:41;3.10;;;1.80;;
11004;SDS011;5555;59.622;16.556;2023-04-24T00:29:08;3.20;;;1.67;;
11004;SDS011;5555;59.622;16.556;2023-04-24T00:31:33;3.67;;;1.53;;
11004;SDS011;5555;59.622;16.556;2023-04-24T00:34:00;5.53;;;2.20;;
11004;SDS011;5555;59.622;16.556;2023-04-24T00:36:26;4.40;;;2.13;;
11004;SDS011;5555;59.622;16.556;2023-04-24T00:38:52;3.17;;;2.00;;
11004;SDS011;5555;59.622;16.556;2023-04-24T00:41:18;3.80;;;2.03;;
11004;SDS011;5555;59.622;16.556;2023-04-24T00:43:45;3.90;;;2.07;;
11004;SDS011;5555;59.622;16.556;2023-04-24T00:46:11;2.43;;;1.80;;
11004;SDS011;5555;59.622;16.556;2023-04-24T00:48:40;2.80;;;2.00;;
11004;SDS011;5555;59.622;16.556;2023-04-24T00:51:06;4.40;;;1.80;;
11004;SDS011;5555;59.622;16.556;2023-04-24T00:53:32;3.03;;;1.93;;
11004;SDS011;5555;59.622;16.556;2023-04-24T00:55:57;4.40;;;2.10;;
11004;SDS011;5555;59.622;16.556;2023-04-24T00:58:24;4.60;;;2.43;;
11004;SDS011;5555;59.622;16.556;2023-04-24T01:00:51;5.90;;;2.20;;
11004;SDS011;5555;59.622;16.556;2023-04-24T01:03:19;4.57;;;2.33;;
11004;SDS011;5555;59.622;16.556;2023-04-24T01:05:46;5.13;;;2.10;;
11004;SDS011;5555;59.622;16.556;2023-04-24T01:08:13;4.43;;;2.03;;
11004;SDS011;5555;59.622;16.556;2023-04-24T01:10:39;5.00;;;2.40;;
11004;SDS011;5555;59.622;16.556;2023-04-24T01:13:07;3.73;;;2.40;;
11004;SDS011;5555;59.622;16.556;2023-04-24T01:15:34;4.73;;;2.60;;
11004;SDS011;5555;59.622;16.556;2023-04-24T01:17:59;4.60;;;2.10;;
11004;SDS011;5555;59.622;16.556;2023-04-24T01:20:25;5.23;;;2.43;;
11004;SDS011;5555;59.622;16.556;2023-04-24T01:22:51;5.20;;;2.17;;
11004;SDS011;5555;59.622;16.556;2023-04-24T01:25:18;3.40;;;2.13;;
11004;SDS011;5555;59.622;16.556;2023-04-24T01:27:44;5.13;;;2.43;;
11004;SDS011;5555;59.622;16.556;2023-04-24T01:30:10;3.50;;;2.40;;
11004;SDS011;5555;59.622;16.556;2023-04-24T01:32:36;5.27;;;2.47;;
11004;SDS011;5555;59.622;16.556;2023-04-24T01:35:03;3.97;;;2.50;;
11004;SDS011;5555;59.622;16.556;2023-04-24T01:37:29;3.40;;;2.23;;
11004;SDS011;5555;59.622;16.556;2023-04-24T01:39:56;5.10;;;2.47;;
11004;SDS011;5555;59.622;16.556;2023-04-24T01:42:22;4.63;;;2.60;;
11004;SDS011;5555;59.622;16.556;2023-04-24T01:44:48;4.27;;;2.33;;
11004;SDS011;5555;59.622;16.556;2023-04-24T01:47:13;5.63;;;2.50;;
11004;SDS011;5555;59.622;16.556;2023-04-24T01:49:39;4.70;;;2.70;;
11004;SDS011;5555;59.622;16.556;2023-04-24T01:52:06;5.30;;;2.70;;
11004;SDS011;5555;59.622;16.556;2023-04-24T01:54:32;3.83;;;2.00;;
11004;SDS011;5555;59.622;16.556;2023-04-24T01:56:58;3.57;;;2.40;;
11004;SDS011;5555;59.622;16.556;2023-04-24T01:59:25;3.13;;;1.97;;
11004;SDS011;5555;59.622;16.556;2023-04-24T02:01:53;6.27;;;2.30;;
11004;SDS011;5555;59.622;16.556;2023-04-24T02:04:19;5.47;;;2.33;;
11004;SDS011;5555;59.622;16.556;2023-04-24T02:06:44;4.07;;;2.53;;
11004;SDS011;5555;59.622;16.556;2023-04-24T02:09:10;4.13;;;2.87;;
11004;SDS011;5555;59.622;16.556;2023-04-24T02:11:36;3.27;;;2.50;;
11004;SDS011;5555;59.622;16.556;2023-04-24T02:14:02;3.77;;;2.50;;
11004;SDS011;5555;59.622;16.556;2023-04-24T02:16:28;6.40;;;2.27;;
11004;SDS011;5555;59.622;16.556;2023-04-24T02:18:57;3.27;;;2.17;;
11004;SDS011;5555;59.622;16.556;2023-04-24T02:21:22;3.97;;;2.33;;
11004;SDS011;5555;59.622;16.556;2023-04-24T02:23:48;2.87;;;2.20;;
11004;SDS011;5555;59.622;16.556;2023-04-24T02:26:13;4.10;;;2.27;;
11004;SDS011;5555;59.622;16.556;2023-04-24T02:28:40;5.73;;;2.50;;
11004;SDS011;5555;59.622;16.556;2023-04-24T02:31:05;3.03;;;2.00;;
11004;SDS011;5555;59.622;16.556;2023-04-24T02:33:31;3.83;;;2.27;;
11004;SDS011;5555;59.622;16.556;2023-04-24T02:35:57;5.73;;;2.93;;
11004;SDS011;5555;59.622;16.556;2023-04-24T02:38:22;4.13;;;2.20;;
11004;SDS011;5555;59.622;16.556;2023-04-24T02:40:48;3.47;;;1.90;;
11004;SDS011;5555;59.622;16.556;2023-04-24T02:43:13;5.00;;;2.37;;
11004;SDS011;5555;59.622;16.556;2023-04-24T02:45:39;4.13;;;2.20;;
11004;SDS011;5555;59.622;16.556;2023-04-24T02:48:05;2.90;;;2.00;;
11004;SDS011;5555;59.622;16.556;2023-04-24T02:50:30;4.67;;;2.40;;
11004;SDS011;5555;59.622;16.556;2023-04-24T02:52:56;4.83;;;2.10;;
11004;SDS011;5555;59.622;16.556;2023-04-24T02:55:22;3.27;;;1.80;;
11004;SDS011;5555;59.622;16.556;2023-04-24T02:57:47;3.50;;;1.90;;
11004;SDS011;5555;59.622;16.556;2023-04-24T03:00:13;4.27;;;2.00;;
11004;SDS011;5555;59.622;16.556;2023-04-24T03:02:39;3.47;;;2.00;;
11004;SDS011;5555;59.622;16.556;2023-04-24T03:05:04;3.93;;;1.97;;
11004;SDS011;5555;59.622;16.556;2023-04-24T03:07:30;3.80;;;2.03;;
11004;SDS011;5555;59.622;16.556;2023-04-24T03:09:57;4.67;;;2.30;;
11004;SDS011;5555;59.622;16.556;2023-04-24T03:12:23;6.63;;;2.17;;
11004;SDS011;5555;59.622;16.556;2023-04-24T03:14:49;7.50;;;2.43;;
11004;SDS011;5555;59.622;16.556;2023-04-24T03:17:14;3.40;;;2.10;;
11004;SDS011;5555;59.622;16.556;2023-04-24T03:19:40;3.23;;;1.87;;
11004;SDS011;5555;59.622;16.556;2023-04-24T03:22:06;4.67;;;1.93;;
11004;SDS011;5555;59.622;16.556;2023-04-24T03:24:34;5.13;;;1.80;;
11004;SDS011;5555;59.622;16.556;2023-04-24T03:26:59;3.97;;;2.33;;
11004;SDS011;5555;59.622;16.556;2023-04-24T03:29:25;3.50;;;1.93;;
11004;SDS011;5555;59.622;16.556;2023-04-24T03:31:51;3.93;;;1.90;;
11004;SDS011;5555;59.622;16.556;2023-04-24T03:34:16;3.23;;;2.00;;
11004;SDS011;5555;59.622;16.556;2023-04-24T03:36:42;3.90;;;2.50;;
11004;SDS011;5555;59.622;16.556;2023-04-24T03:39:07;2.77;;;2.00;;
11004;SDS011;5555;59.622;16.556;2023-04-24T03:41:33;1.80;;;1.70;;
11004;SDS011;5555;59.622;16.556;2023-04-24T03:43:58;3.83;;;2.20;;
11004;SDS011;5555;59.622;16.556;2023-04-24T03:46:25;4.20;;;1.97;;
11004;SDS011;5555;59.622;16.556;2023-04-24T03:48:50;3.83;;;2.33;;
11004;SDS011;5555;59.622;16.556;2023-04-24T03:51:16;3.00;;;1.80;;
11004;SDS011;5555;59.622;16.556;2023-04-24T03:53:41;2.13;;;1.53;;
11004;SDS011;5555;59.622;16.556;2023-04-24T03:56:07;3.00;;;1.43;;
11004;SDS011;5555;59.622;16.556;2023-04-24T03:58:33;4.40;;;1.80;;
11004;SDS011;5555;59.622;16.556;2023-04-24T04:00:58;3.97;;;1.90;;
11004;SDS011;5555;59.622;16.556;2023-04-24T04:03:25;3.00;;;1.30;;
11004;SDS011;5555;59.622;16.556;2023-04-24T04:05:50;2.13;;;1.40;;
11004;SDS011;5555;59.622;16.556;2023-04-24T04:08:16;2.13;;;1.70;;
11004;SDS011;5555;59.622;16.556;2023-04-24T04:10:42;2.00;;;1.80;;
11004;SDS011;5555;59.622;16.556;2023-04-24T04:13:07;2.17;;;1.50;;
11004;SDS011;5555;59.622;16.556;2023-04-24T04:15:33;3.40;;;2.03;;
11004;SDS011;5555;59.622;16.556;2023-04-24T04:17:59;2.10;;;1.60;;
11004;SDS011;5555;59.622;16.556;2023-04-24T04:20:24;2.70;;;2.00;;
11004;SDS011;5555;59.622;16.556;2023-04-24T04:22:50;2.70;;;2.03;;
11004;SDS011;5555;59.622;16.556;2023-04-24T04:25:16;2.27;;;1.90;;
11004;SDS011;5555;59.622;16.556;2023-04-24T04:27:44;2.50;;;1.83;;
11004;SDS011;5555;59.622;16.556;2023-04-24T04:30:10;2.83;;;1.57;;
11004;SDS011;5555;59.622;16.556;2023-04-24T04:32:36;1.60;;;1.33;;
11004;SDS011;5555;59.622;16.556;2023-04-24T04:35:02;2.10;;;1.13;;
11004;SDS011;5555;59.622;16.556;2023-04-24T04:37:31;2.60;;;1.57;;
11004;SDS011;5555;59.622;16.556;2023-04-24T04:39:58;1.53;;;1.20;;
11004;SDS011;5555;59.622;16.556;2023-04-24T04:42:24;2.10;;;1.37;;
11004;SDS011;5555;59.622;16.556;2023-04-24T04:44:50;2.87;;;1.40;;
11004;SDS011;5555;59.622;16.556;2023-04-24T04:47:16;2.43;;;1.37;;
11004;SDS011;5555;59.622;16.556;2023-04-24T04:49:43;1.63;;;1.20;;
11004;SDS011;5555;59.622;16.556;2023-04-24T04:52:09;2.10;;;1.20;;
11004;SDS011;5555;59.622;16.556;2023-04-24T04:54:34;1.70;;;1.10;;
11004;SDS011;5555;59.622;16.556;2023-04-24T04:57:00;1.57;;;1.10;;
11004;SDS011;5555;59.622;16.556;2023-04-24T04:59:26;1.53;;;1.30;;
11004;SDS011;5555;59.622;16.556;2023-04-24T05:01:52;2.20;;;0.70;;
11004;SDS011;5555;59.622;16.556;2023-04-24T05:04:18;1.50;;;1.20;;
11004;SDS011;5555;59.622;16.556;2023-04-24T05:06:44;1.90;;;1.20;;
11004;SDS011;5555;59.622;16.556;2023-04-24T05:09:09;1.70;;;1.40;;
11004;SDS011;5555;59.622;16.556;2023-04-24T05:11:35;1.67;;;1.20;;
11004;SDS011;5555;59.622;16.556;2023-04-24T05:14:01;3.80;;;1.50;;
11004;SDS011;5555;59.622;16.556;2023-04-24T05:16:26;2.47;;;1.67;;
11004;SDS011;5555;59.622;16.556;2023-04-24T05:18:52;1.43;;;1.30;;
11004;SDS011;5555;59.622;16.556;2023-04-24T05:21:17;1.37;;;1.20;;
11004;SDS011;5555;59.622;16.556;2023-04-24T05:23:43;1.67;;;1.30;;
11004;SDS011;5555;59.622;16.556;2023-04-24T05:26:09;1.57;;;1.47;;
11004;SDS011;5555;59.622;16.556;2023-04-24T05:28:34;1.93;;;1.30;;
11004;SDS011;5555;59.622;16.556;2023-04-24T05:31:01;2.37;;;1.33;;
11004;SDS011;5555;59.622;16.556;2023-04-24T05:33:27;2.87;;;1.47;;
11004;SDS011;5555;59.622;16.556;2023-04-24T05:35:53;1.40;;;1.30;;
11004;SDS011;5555;59.622;16.556;2023-04-24T05:38:19;2.63;;;1.60;;
11004;SDS011;5555;59.622;16.556;2023-04-24T05:40:45;2.13;;;1.40;;
11004;SDS011;5555;59.622;16.556;2023-04-24T05:43:11;2.27;;;1.70;;
11004;SDS011;5555;59.622;16.556;2023-04-24T05:45:37;1.80;;;1.67;;
11004;SDS011;5555;59.622;16.556;2023-04-24T05:48:03;1.60;;;1.50;;
11004;SDS011;5555;59.622;16.556;2023-04-24T05:50:29;2.80;;;1.30;;
11004;SDS011;5555;59.622;16.556;2023-04-24T05:52:55;1.93;;;1.57;;
11004;SDS011;5555;59.622;16.556;2023-04-24T05:55:23;2.80;;;1.70;;
11004;SDS011;5555;59.622;16.556;2023-04-24T05:57:49;2.00;;;1.50;;
11004;SDS011;5555;59.622;16.556;2023-04-24T06:00:15;1.67;;;1.47;;
11004;SDS011;5555;59.622;16.556;2023-04-24T06:02:40;1.60;;;1.50;;
11004;SDS011;5555;59.622;16.556;2023-04-24T06:05:06;1.20;;;1.10;;
11004;SDS011;5555;59.622;16.556;2023-04-24T06:07:33;1.57;;;1.40;;
11004;SDS011;5555;59.622;16.556;2023-04-24T06:09:59;1.67;;;1.40;;
11004;SDS011;5555;59.622;16.556;2023-04-24T06:12:25;1.87;;;1.60;;
11004;SDS011;5555;59.622;16.556;2023-04-24T06:14:51;2.33;;;1.77;;
11004;SDS011;5555;59.622;16.556;2023-04-24T06:17:16;1.67;;;1.43;;
11004;SDS011;5555;59.622;16.556;2023-04-24T06:19:42;1.67;;;1.40;;
11004;SDS011;5555;59.622;16.556;2023-04-24T06:22:08;1.60;;;1.50;;
11004;SDS011;5555;59.622;16.556;2023-04-24T06:24:34;1.53;;;1.43;;
11004;SDS011;5555;59.622;16.556;2023-04-24T06:26:59;1.50;;;1.40;;
11004;SDS011;5555;59.622;16.556;2023-04-24T06:29:26;2.60;;;1.60;;
11004;SDS011;5555;59.622;16.556;2023-04-24T06:31:52;1.30;;;1.20;;
11004;SDS011;5555;59.622;16.556;2023-04-24T06:34:18;1.10;;;1.10;;
11004;SDS011;5555;59.622;16.556;2023-04-24T06:36:43;1.60;;;1.33;;
11004;SDS011;5555;59.622;16.556;2023-04-24T06:39:09;1.40;;;1.30;;
11004;SDS011;5555;59.622;16.556;2023-04-24T06:41:35;1.20;;;1.13;;
11004;SDS011;5555;59.622;16.556;2023-04-24T06:44:00;1.27;;;1.17;;
11004;SDS011;5555;59.622;16.556;2023-04-24T06:46:26;1.60;;;1.20;;
11004;SDS011;5555;59.622;16.556;2023-04-24T06:48:53;2.00;;;1.47;;
11004;SDS011;5555;59.622;16.556;2023-04-24T06:51:25;1.60;;;1.23;;
11004;SDS011;5555;59.622;16.556;2023-04-24T06:53:52;1.70;;;1.40;;
11004;SDS011;5555;59.622;16.556;2023-04-24T06:56:18;1.73;;;1.40;;
11004;SDS011;5555;59.622;16.556;2023-04-24T06:58:44;2.47;;;1.57;;
11004;SDS011;5555;59.622;16.556;2023-04-24T07:01:10;2.07;;;1.47;;
11004;SDS011;5555;59.622;16.556;2023-04-24T07:03:36;2.07;;;1.60;;
11004;SDS011;5555;59.622;16.556;2023-04-24T07:06:02;1.30;;;1.20;;
11004;SDS011;5555;59.622;16.556;2023-04-24T07:08:28;1.83;;;1.43;;
11004;SDS011;5555;59.622;16.556;2023-04-24T07:10:55;1.87;;;1.30;;
11004;SDS011;5555;59.622;16.556;2023-04-24T07:13:21;3.03;;;1.50;;
11004;SDS011;5555;59.622;16.556;2023-04-24T07:15:47;1.47;;;1.37;;
11004;SDS011;5555;59.622;16.556;2023-04-24T07:18:15;1.50;;;1.40;;
11004;SDS011;5555;59.622;16.556;2023-04-24T07:20:41;1.50;;;1.40;;
11004;SDS011;5555;59.622;16.556;2023-04-24T07:23:07;1.57;;;1.40;;
11004;SDS011;5555;59.622;16.556;2023-04-24T07:25:32;2.63;;;1.80;;
11004;SDS011;5555;59.622;16.556;2023-04-24T07:27:58;1.47;;;1.37;;
11004;SDS011;5555;59.622;16.556;2023-04-24T07:30:24;1.77;;;1.50;;
11004;SDS011;5555;59.622;16.556;2023-04-24T07:32:49;3.10;;;1.57;;
11004;SDS011;5555;59.622;16.556;2023-04-24T07:35:15;1.60;;;1.50;;
11004;SDS011;5555;59.622;16.556;2023-04-24T07:37:41;3.90;;;1.70;;
11004;SDS011;5555;59.622;16.556;2023-04-24T07:40:11;2.87;;;1.50;;
11004;SDS011;5555;59.622;16.556;2023-04-24T07:42:40;1.90;;;1.53;;
11004;SDS011;5555;59.622;16.556;2023-04-24T07:45:06;4.33;;;1.90;;
11004;SDS011;5555;59.622;16.556;2023-04-24T07:47:32;1.90;;;1.70;;
11004;SDS011;5555;59.622;16.556;2023-04-24T07:49:59;2.97;;;1.53;;
11004;SDS011;5555;59.622;16.556;2023-04-24T07:52:24;2.10;;;1.43;;
11004;SDS011;5555;59.622;16.556;2023-04-24T07:54:50;2.53;;;1.50;;
11004;SDS011;5555;59.622;16.556;2023-04-24T07:57:17;2.80;;;1.70;;
11004;SDS011;5555;59.622;16.556;2023-04-24T07:59:43;2.80;;;1.70;;
11004;SDS011;5555;59.622;16.556;2023-04-24T08:02:09;3.37;;;1.50;;
11004;SDS011;5555;59.622;16.556;2023-04-24T08:04:34;1.43;;;1.30;;
11004;SDS011;5555;59.622;16.556;2023-04-24T08:07:00;1.40;;;1.30;;
11004;SDS011;5555;59.622;16.556;2023-04-24T08:09:26;2.80;;;1.67;;
11004;SDS011;5555;59.622;16.556;2023-04-24T08:11:51;3.07;;;1.50;;
11004;SDS011;5555;59.622;16.556;2023-04-24T08:14:18;1.93;;;1.70;;
11004;SDS011;5555;59.622;16.556;2023-04-24T08:16:43;2.00;;;1.70;;
11004;SDS011;5555;59.622;16.556;2023-04-24T08:19:09;2.80;;;1.80;;
11004;SDS011;5555;59.622;16.556;2023-04-24T08:21:35;3.37;;;3.00;;
11004;SDS011;5555;59.622;16.556;2023-04-24T08:24:00;2.53;;;1.87;;
11004;SDS011;5555;59.622;16.556;2023-04-24T08:26:30;1.53;;;1.40;;
11004;SDS011;5555;59.622;16.556;2023-04-24T08:28:55;2.17;;;1.67;;
11004;SDS011;5555;59.622;16.556;2023-04-24T08:31:21;2.07;;;1.80;;
11004;SDS011;5555;59.622;16.556;2023-04-24T08:33:47;2.30;;;1.70;;
11004;SDS011;5555;59.622;16.556;2023-04-24T08:36:13;4.67;;;2.03;;
11004;SDS011;5555;59.622;16.556;2023-04-24T08:38:39;4.73;;;2.00;;
11004;SDS011;5555;59.622;16.556;2023-04-24T08:41:05;3.37;;;1.97;;
11004;SDS011;5555;59.622;16.556;2023-04-24T08:43:32;3.97;;;1.77;;
11004;SDS011;5555;59.622;16.556;2023-04-24T08:46:01;4.63;;;1.80;;
11004;SDS011;5555;59.622;16.556;2023-04-24T08:48:28;4.00;;;2.00;;
11004;SDS011;5555;59.622;16.556;2023-04-24T08:50:56;2.00;;;1.80;;
11004;SDS011;5555;59.622;16.556;2023-04-24T08:53:22;3.30;;;1.80;;
11004;SDS011;5555;59.622;16.556;2023-04-24T08:55:50;2.57;;;1.97;;
11004;SDS011;5555;59.622;16.556;2023-04-24T08:58:18;2.73;;;2.03;;
11004;SDS011;5555;59.622;16.556;2023-04-24T09:00:44;3.87;;;2.20;;
11004;SDS011;5555;59.622;16.556;2023-04-24T09:03:15;3.00;;;1.90;;
11004;SDS011;5555;59.622;16.556;2023-04-24T09:05:42;3.40;;;2.23;;
11004;SDS011;5555;59.622;16.556;2023-04-24T09:08:11;3.40;;;2.10;;
11004;SDS011;5555;59.622;16.556;2023-04-24T09:10:39;3.77;;;2.50;;
11004;SDS011;5555;59.622;16.556;2023-04-24T09:13:05;3.50;;;2.10;;
11004;SDS011;5555;59.622;16.556;2023-04-24T09:15:31;2.17;;;1.80;;
11004;SDS011;5555;59.622;16.556;2023-04-24T09:17:57;4.70;;;2.20;;
11004;SDS011;5555;59.622;16.556;2023-04-24T09:20:22;2.50;;;1.73;;
11004;SDS011;5555;59.622;16.556;2023-04-24T09:22:48;4.07;;;2.23;;
11004;SDS011;5555;59.622;16.556;2023-04-24T09:25:20;2.40;;;1.93;;
11004;SDS011;5555;59.622;16.556;2023-04-24T09:27:46;4.40;;;2.50;;
11004;SDS011;5555;59.622;16.556;2023-04-24T09:30:12;3.13;;;2.23;;
11004;SDS011;5555;59.622;16.556;2023-04-24T09:32:38;4.70;;;2.27;;
11004;SDS011;5555;59.622;16.556;2023-04-24T09:35:13;2.73;;;1.67;;
11004;SDS011;5555;59.622;16.556;2023-04-24T09:37:42;3.10;;;1.73;;
11004;SDS011;5555;59.622;16.556;2023-04-24T09:40:16;3.43;;;2.10;;
11004;SDS011;5555;59.622;16.556;2023-04-24T09:42:52;2.70;;;2.20;;
11004;SDS011;5555;59.622;16.556;2023-04-24T09:45:20;2.70;;;1.97;;
11004;SDS011;5555;59.622;16.556;2023-04-24T09:47:46;3.07;;;2.27;;
11004;SDS011;5555;59.622;16.556;2023-04-24T09:50:18;4.27;;;2.10;;
11004;SDS011;5555;59.622;16.556;2023-04-24T09:52:57;4.33;;;2.30;;
11004;SDS011;5555;59.622;16.556;2023-04-24T09:55:25;3.40;;;2.20;;
11004;SDS011;5555;59.622;16.556;2023-04-24T09:57:52;2.87;;;2.37;;
11004;SDS011;5555;59.622;16.556;2023-04-24T10:02:50;3.73;;;2.77;;
11004;SDS011;5555;59.622;16.556;2023-04-24T10:05:22;2.80;;;2.50;;
11004;SDS011;5555;59.622;16.556;2023-04-24T10:07:56;3.40;;;2.83;;
11004;SDS011;5555;59.622;16.556;2023-04-24T10:10:23;5.13;;;3.57;;
11004;SDS011;5555;59.622;16.556;2023-04-24T10:12:49;5.60;;;3.47;;
11004;SDS011;5555;59.622;16.556;2023-04-24T10:15:16;4.13;;;3.30;;
11004;SDS011;5555;59.622;16.556;2023-04-24T10:17:46;4.00;;;3.43;;
11004;SDS011;5555;59.622;16.556;2023-04-24T10:20:23;6.00;;;4.60;;
11004;SDS011;5555;59.622;16.556;2023-04-24T10:22:50;4.07;;;3.57;;
11004;SDS011;5555;59.622;16.556;2023-04-24T10:25:18;7.57;;;4.00;;
11004;SDS011;5555;59.622;16.556;2023-04-24T10:27:48;4.57;;;3.40;;
11004;SDS011;5555;59.622;16.556;2023-04-24T10:30:15;6.43;;;4.23;;
11004;SDS011;5555;59.622;16.556;2023-04-24T10:32:41;4.97;;;4.20;;
11004;SDS011;5555;59.622;16.556;2023-04-24T10:35:08;4.43;;;4.03;;
11004;SDS011;5555;59.622;16.556;2023-04-24T10:37:39;5.87;;;4.53;;
11004;SDS011;5555;59.622;16.556;2023-04-24T10:40:07;5.97;;;4.60;;
11004;SDS011;5555;59.622;16.556;2023-04-24T10:42:35;5.97;;;4.90;;
11004;SDS011;5555;59.622;16.556;2023-04-24T10:45:05;5.63;;;4.67;;
11004;SDS011;5555;59.622;16.556;2023-04-24T10:47:39;5.57;;;4.73;;
11004;SDS011;5555;59.622;16.556;2023-04-24T10:50:15;5.77;;;5.20;;
11004;SDS011;5555;59.622;16.556;2023-04-24T10:52:44;5.23;;;4.73;;
11004;SDS011;5555;59.622;16.556;2023-04-24T10:55:13;5.20;;;4.80;;
11004;SDS011;5555;59.622;16.556;2023-04-24T10:57:40;5.57;;;4.90;;
11004;SDS011;5555;59.622;16.556;2023-04-24T11:00:27;6.07;;;5.53;;
11004;SDS011;5555;59.622;16.556;2023-04-24T11:02:53;5.60;;;5.13;;
11004;SDS011;5555;59.622;16.556;2023-04-24T11:05:20;8.27;;;5.13;;
11004;SDS011;5555;59.622;16.556;2023-04-24T11:10:38;6.00;;;5.20;;
11004;SDS011;5555;59.622;16.556;2023-04-24T11:13:05;5.83;;;4.97;;
11004;SDS011;5555;59.622;16.556;2023-04-24T11:15:31;7.07;;;4.73;;
11004;SDS011;5555;59.622;16.556;2023-04-24T11:17:56;6.23;;;4.50;;
11004;SDS011;5555;59.622;16.556;2023-04-24T11:20:23;5.90;;;5.03;;
11004;SDS011;5555;59.622;16.556;2023-04-24T11:22:51;9.67;;;4.90;;
11004;SDS011;5555;59.622;16.556;2023-04-24T11:25:19;5.87;;;4.87;;
11004;SDS011;5555;59.622;16.556;2023-04-24T11:27:47;4.57;;;4.17;;
11004;SDS011;5555;59.622;16.556;2023-04-24T11:30:18;4.10;;;3.63;;
11004;SDS011;5555;59.622;16.556;2023-04-24T11:32:48;7.00;;;4.10;;
11004;SDS011;5555;59.622;16.556;2023-04-24T11:35:19;5.73;;;4.20;;
11004;SDS011;5555;59.622;16.556;2023-04-24T11:37:47;5.93;;;4.20;;
11004;SDS011;5555;59.622;16.556;2023-04-24T11:40:15;4.67;;;3.77;;
11004;SDS011;5555;59.622;16.556;2023-04-24T11:42:45;4.73;;;3.50;;
11004;SDS011;5555;59.622;16.556;2023-04-24T11:45:20;3.90;;;3.60;;
11004;SDS011;5555;59.622;16.556;2023-04-24T11:47:50;4.13;;;3.73;;
11004;SDS011;5555;59.622;16.556;2023-04-24T11:50:17;4.60;;;3.33;;
11004;SDS011;5555;59.622;16.556;2023-04-24T11:52:45;5.60;;;4.20;;
11004;SDS011;5555;59.622;16.556;2023-04-24T11:57:47;5.03;;;3.50;;
11004;SDS011;5555;59.622;16.556;2023-04-24T12:00:18;5.20;;;2.90;;
11004;SDS011;5555;59.622;16.556;2023-04-24T12:02:48;3.30;;;3.00;;
11004;SDS011;5555;59.622;16.556;2023-04-24T12:05:22;3.67;;;3.37;;
11004;SDS011;5555;59.622;16.556;2023-04-24T12:07:49;3.33;;;3.03;;
11004;SDS011;5555;59.622;16.556;2023-04-24T12:10:19;3.20;;;2.90;;
11004;SDS011;5555;59.622;16.556;2023-04-24T12:12:46;5.67;;;3.00;;
11004;SDS011;5555;59.622;16.556;2023-04-24T12:15:12;3.57;;;2.77;;
11004;SDS011;5555;59.622;16.556;2023-04-24T12:17:40;3.90;;;3.20;;
11004;SDS011;5555;59.622;16.556;2023-04-24T12:20:07;5.63;;;3.00;;
11004;SDS011;5555;59.622;16.556;2023-04-24T12:22:53;3.80;;;2.60;;
11004;SDS011;5555;59.622;16.556;2023-04-24T12:25:21;3.30;;;3.00;;
11004;SDS011;5555;59.622;16.556;2023-04-24T12:27:52;3.83;;;3.30;;
11004;SDS011;5555;59.622;16.556;2023-04-24T12:30:19;5.23;;;3.03;;
11004;SDS011;5555;59.622;16.556;2023-04-24T12:32:46;5.90;;;3.87;;
11004;SDS011;5555;59.622;16.556;2023-04-24T12:35:13;5.40;;;3.80;;
11004;SDS011;5555;59.622;16.556;2023-04-24T12:37:46;4.30;;;3.20;;
11004;SDS011;5555;59.622;16.556;2023-04-24T12:40:12;5.73;;;3.60;;
11004;SDS011;5555;59.622;16.556;2023-04-24T12:42:45;4.27;;;3.87;;
11004;SDS011;5555;59.622;16.556;2023-04-24T12:45:16;5.10;;;3.70;;
11004;SDS011;5555;59.622;16.556;2023-04-24T12:47:43;6.77;;;5.00;;
11004;SDS011;5555;59.622;16.556;2023-04-24T12:50:10;5.43;;;4.00;;
11004;SDS011;5555;59.622;16.556;2023-04-24T12:52:40;4.20;;;3.80;;
11004;SDS011;5555;59.622;16.556;2023-04-24T12:55:07;5.77;;;4.27;;
11004;SDS011;5555;59.622;16.556;2023-04-24T12:57:34;6.90;;;4.03;;
11004;SDS011;5555;59.622;16.556;2023-04-24T13:00:00;5.97;;;3.80;;
11004;SDS011;5555;59.622;16.556;2023-04-24T13:02:27;4.67;;;3.63;;
11004;SDS011;5555;59.622;16.556;2023-04-24T13:04:55;5.67;;;3.97;;
11004;SDS011;5555;59.622;16.556;2023-04-24T13:07:22;5.10;;;4.13;;
11004;SDS011;5555;59.622;16.556;2023-04-24T13:09:48;5.40;;;4.03;;
11004;SDS011;5555;59.622;16.556;2023-04-24T13:12:14;5.07;;;3.77;;
11004;SDS011;5555;59.622;16.556;2023-04-24T13:14:40;6.10;;;3.93;;
11004;SDS011;5555;59.622;16.556;2023-04-24T13:17:06;5.30;;;3.47;;
11004;SDS011;5555;59.622;16.556;2023-04-24T13:19:38;4.83;;;3.20;;
11004;SDS011;5555;59.622;16.556;2023-04-24T13:22:05;5.43;;;3.47;;
11004;SDS011;5555;59.622;16.556;2023-04-24T13:24:32;5.30;;;3.43;;
11004;SDS011;5555;59.622;16.556;2023-04-24T13:26:58;3.73;;;3.30;;
11004;SDS011;5555;59.622;16.556;2023-04-24T13:29:25;5.00;;;3.50;;
11004;SDS011;5555;59.622;16.556;2023-04-24T13:31:51;6.77;;;3.53;;
11004;SDS011;5555;59.622;16.556;2023-04-24T13:34:19;6.90;;;3.90;;
11004;SDS011;5555;59.622;16.556;2023-04-24T13:36:46;6.73;;;3.70;;
11004;SDS011;5555;59.622;16.556;2023-04-24T13:39:12;4.43;;;3.87;;
11004;SDS011;5555;59.622;16.556;2023-04-24T13:41:37;6.50;;;3.90;;
11004;SDS011;5555;59.622;16.556;2023-04-24T13:44:03;7.43;;;3.83;;
11004;SDS011;5555;59.622;16.556;2023-04-24T13:46:30;4.53;;;4.13;;
11004;SDS011;5555;59.622;16.556;2023-04-24T13:48:56;4.30;;;3.90;;
11004;SDS011;5555;59.622;16.556;2023-04-24T13:51:22;5.30;;;4.10;;
11004;SDS011;5555;59.622;16.556;2023-04-24T13:53:51;8.03;;;4.33;;
11004;SDS011;5555;59.622;16.556;2023-04-24T13:56:17;7.17;;;4.47;;
11004;SDS011;5555;59.622;16.556;2023-04-24T13:58:43;4.87;;;4.13;;
11004;SDS011;5555;59.622;16.556;2023-04-24T14:01:09;4.50;;;4.03;;
11004;SDS011;5555;59.622;16.556;2023-04-24T14:03:35;4.10;;;3.70;;
11004;SDS011;5555;59.622;16.556;2023-04-24T14:06:02;5.00;;;4.33;;
11004;SDS011;5555;59.622;16.556;2023-04-24T14:08:28;6.93;;;4.70;;
11004;SDS011;5555;59.622;16.556;2023-04-24T14:10:54;5.00;;;4.57;;
11004;SDS011;5555;59.622;16.556;2023-04-24T14:13:19;6.07;;;3.90;;
11004;SDS011;5555;59.622;16.556;2023-04-24T14:15:45;4.27;;;3.87;;
11004;SDS011;5555;59.622;16.556;2023-04-24T14:18:11;5.57;;;4.10;;
11004;SDS011;5555;59.622;16.556;2023-04-24T14:20:37;5.40;;;4.33;;
11004;SDS011;5555;59.622;16.556;2023-04-24T14:23:03;5.63;;;4.57;;
11004;SDS011;5555;59.622;16.556;2023-04-24T14:25:29;6.90;;;4.60;;
11004;SDS011;5555;59.622;16.556;2023-04-24T14:27:55;5.37;;;3.77;;
11004;SDS011;5555;59.622;16.556;2023-04-24T14:30:20;5.23;;;4.70;;
11004;SDS011;5555;59.622;16.556;2023-04-24T14:32:46;4.87;;;4.27;;
11004;SDS011;5555;59.622;16.556;2023-04-24T14:35:12;5.70;;;4.90;;
11004;SDS011;5555;59.622;16.556;2023-04-24T14:37:38;5.43;;;4.60;;
11004;SDS011;5555;59.622;16.556;2023-04-24T14:40:06;7.73;;;5.40;;
11004;SDS011;5555;59.622;16.556;2023-04-24T14:42:33;9.23;;;5.33;;
11004;SDS011;5555;59.622;16.556;2023-04-24T14:44:59;6.37;;;5.47;;
11004;SDS011;5555;59.622;16.556;2023-04-24T14:47:24;6.43;;;5.20;;
11004;SDS011;5555;59.622;16.556;2023-04-24T14:49:50;6.40;;;5.60;;
11004;SDS011;5555;59.622;16.556;2023-04-24T14:52:16;7.87;;;5.60;;
11004;SDS011;5555;59.622;16.556;2023-04-24T14:54:42;8.03;;;5.43;;